sensor_id;sensor_type;location;lat;lon;timestamp;temperature;humidity
19033;DHT22;9649;51.042;13.804;2023-04-06T00:00:53;1.30;1.00
19033;DHT22;9649;51.042;13.804;2023-04-06T00:05:56;1.30;99.90
19033;DHT22;9649;51.042;13.804;2023-04-06T00:11:00;1.10;1.00
19033;DHT22;9649;51.042;13.804;2023-04-06T00:16:04;1.20;1.00
19033;DHT22;9649;51.042;13.804;2023-04-06T00:21:07;1.10;1.00
19033;DHT22;9649;51.042;13.804;2023-04-06T00:26:11;1.20;99.90
19033;DHT22;9649;51.042;13.804;2023-04-06T00:31:14;1.40;1.00
19033;DHT22;9649;51.042;13.804;2023-04-06T00:36:17;1.00;1.00
19033;DHT22;9649;51.042;13.804;2023-04-06T00:41:21;0.80;99.90
19033;DHT22;9649;51.042;13.804;2023-04-06T00:46:24;0.50;1.00
19033;DHT22;9649;51.042;13.804;2023-04-06T00:51:27;0.30;1.00
19033;DHT22;9649;51.042;13.804;2023-04-06T00:56:31;0.30;1.00
19033;DHT22;9649;51.042;13.804;2023-04-06T01:01:34;0.60;1.00
19033;DHT22;9649;51.042;13.804;2023-04-06T01:06:37;0.90;1.00
19033;DHT22;9649;51.042;13.804;2023-04-06T01:11:41;1.10;1.00
19033;DHT22;9649;51.042;13.804;2023-04-06T01:16:43;1.10;1.00
19033;DHT22;9649;51.042;13.804;2023-04-06T01:21:46;0.80;99.90
19033;DHT22;9649;51.042;13.804;2023-04-06T01:26:52;0.90;99.90
19033;DHT22;9649;51.042;13.804;2023-04-06T01:31:54;0.70;99.90
19033;DHT22;9649;51.042;13.804;2023-04-06T01:36:57;0.80;99.90
19033;DHT22;9649;51.042;13.804;2023-04-06T01:42:01;0.70;99.90
19033;DHT22;9649;51.042;13.804;2023-04-06T01:47:04;0.50;1.00
19033;DHT22;9649;51.042;13.804;2023-04-06T01:52:07;0.60;1.00
19033;DHT22;9649;51.042;13.804;2023-04-06T01:57:11;0.30;1.00
19033;DHT22;9649;51.042;13.804;2023-04-06T02:02:13;0.20;1.00
19033;DHT22;9649;51.042;13.804;2023-04-06T02:07:16;0.20;1.00
19033;DHT22;9649;51.042;13.804;2023-04-06T02:12:21;-0.10;1.00
19033;DHT22;9649;51.042;13.804;2023-04-06T02:17:23;-0.30;1.00
19033;DHT22;9649;51.042;13.804;2023-04-06T02:22:26;-0.20;37.00
19033;DHT22;9649;51.042;13.804;2023-04-06T02:27:30;0.00;1.00
19033;DHT22;9649;51.042;13.804;2023-04-06T02:32:33;0.00;1.00
19033;DHT22;9649;51.042;13.804;2023-04-06T02:37:36;-0.10;1.00
19033;DHT22;9649;51.042;13.804;2023-04-06T02:42:40;0.00;1.00
19033;DHT22;9649;51.042;13.804;2023-04-06T02:47:43;0.10;1.00
19033;DHT22;9649;51.042;13.804;2023-04-06T02:52:46;0.20;1.00
19033;DHT22;9649;51.042;13.804;2023-04-06T02:57:50;0.10;1.00
19033;DHT22;9649;51.042;13.804;2023-04-06T03:02:52;0.10;1.00
19033;DHT22;9649;51.042;13.804;2023-04-06T03:07:55;-0.10;1.00
19033;DHT22;9649;51.042;13.804;2023-04-06T03:12:59;-0.10;1.00
19033;DHT22;9649;51.042;13.804;2023-04-06T03:18:02;0.00;1.00
19033;DHT22;9649;51.042;13.804;2023-04-06T03:23:05;-0.10;1.00
19033;DHT22;9649;51.042;13.804;2023-04-06T03:28:09;-0.30;1.00
19033;DHT22;9649;51.042;13.804;2023-04-06T03:33:11;-0.40;49.10
19033;DHT22;9649;51.042;13.804;2023-04-06T03:38:14;-0.60;99.90
19033;DHT22;9649;51.042;13.804;2023-04-06T03:43:18;-0.30;99.90
19033;DHT22;9649;51.042;13.804;2023-04-06T03:48:21;-0.10;1.00
19033;DHT22;9649;51.042;13.804;2023-04-06T03:53:24;-0.10;1.00
19033;DHT22;9649;51.042;13.804;2023-04-06T03:58:28;-0.20;1.00
19033;DHT22;9649;51.042;13.804;2023-04-06T04:03:30;-0.10;1.00
19033;DHT22;9649;51.042;13.804;2023-04-06T04:08:33;-0.20;1.00
19033;DHT22;9649;51.042;13.804;2023-04-06T04:13:38;-0.30;1.00
19033;DHT22;9649;51.042;13.804;2023-04-06T04:18:40;-0.40;1.00
19033;DHT22;9649;51.042;13.804;2023-04-06T04:23:45;-0.80;99.90
19033;DHT22;9649;51.042;13.804;2023-04-06T04:28:49;-0.80;99.90
19033;DHT22;9649;51.042;13.804;2023-04-06T04:33:51;-0.80;99.90
19033;DHT22;9649;51.042;13.804;2023-04-06T04:38:54;-0.80;99.90
19033;DHT22;9649;51.042;13.804;2023-04-06T04:43:58;-0.90;99.90
19033;DHT22;9649;51.042;13.804;2023-04-06T04:49:01;-0.80;99.90
19033;DHT22;9649;51.042;13.804;2023-04-06T04:54:04;-0.70;99.90
19033;DHT22;9649;51.042;13.804;2023-04-06T04:59:08;-0.70;99.90
19033;DHT22;9649;51.042;13.804;2023-04-06T05:04:11;-0.70;99.90
19033;DHT22;9649;51.042;13.804;2023-04-06T05:09:14;-0.50;99.90
19033;DHT22;9649;51.042;13.804;2023-04-06T05:14:18;-0.30;23.30
19033;DHT22;9649;51.042;13.804;2023-04-06T05:19:21;-0.20;1.00
19033;DHT22;9649;51.042;13.804;2023-04-06T05:24:24;-0.10;1.00
19033;DHT22;9649;51.042;13.804;2023-04-06T05:29:28;0.10;1.00
19033;DHT22;9649;51.042;13.804;2023-04-06T05:34:31;0.10;1.00
19033;DHT22;9649;51.042;13.804;2023-04-06T05:39:34;0.30;1.00
19033;DHT22;9649;51.042;13.804;2023-04-06T05:44:38;0.40;1.00
19033;DHT22;9649;51.042;13.804;2023-04-06T05:49:41;0.90;1.00
19033;DHT22;9649;51.042;13.804;2023-04-06T05:54:44;1.20;1.00
19033;DHT22;9649;51.042;13.804;2023-04-06T05:59:48;1.30;1.00
19033;DHT22;9649;51.042;13.804;2023-04-06T06:04:51;1.40;69.60
19033;DHT22;9649;51.042;13.804;2023-04-06T06:09:56;1.50;1.00
19033;DHT22;9649;51.042;13.804;2023-04-06T06:15:00;1.70;99.90
19033;DHT22;9649;51.042;13.804;2023-04-06T06:20:04;1.80;1.00
19033;DHT22;9649;51.042;13.804;2023-04-06T06:25:07;2.10;99.90
19033;DHT22;9649;51.042;13.804;2023-04-06T06:30:12;2.30;1.00
19033;DHT22;9649;51.042;13.804;2023-04-06T06:35:15;2.50;57.10
19033;DHT22;9649;51.042;13.804;2023-04-06T06:40:17;2.60;1.00
19033;DHT22;9649;51.042;13.804;2023-04-06T06:45:22;2.80;99.90
19033;DHT22;9649;51.042;13.804;2023-04-06T06:50:27;3.00;1.00
19033;DHT22;9649;51.042;13.804;2023-04-06T06:55:29;3.40;1.00
19033;DHT22;9649;51.042;13.804;2023-04-06T07:00:33;3.50;99.90
19033;DHT22;9649;51.042;13.804;2023-04-06T07:05:36;3.80;99.90
19033;DHT22;9649;51.042;13.804;2023-04-06T07:10:42;4.00;1.00
19033;DHT22;9649;51.042;13.804;2023-04-06T07:15:45;4.20;1.00
19033;DHT22;9649;51.042;13.804;2023-04-06T07:20:48;4.40;1.00
19033;DHT22;9649;51.042;13.804;2023-04-06T07:25:51;4.60;99.90
19033;DHT22;9649;51.042;13.804;2023-04-06T07:30:56;4.60;1.00
19033;DHT22;9649;51.042;13.804;2023-04-06T07:35:59;4.60;12.30
19033;DHT22;9649;51.042;13.804;2023-04-06T07:41:02;5.00;1.00
19033;DHT22;9649;51.042;13.804;2023-04-06T07:46:07;5.20;1.00
19033;DHT22;9649;51.042;13.804;2023-04-06T07:51:09;5.40;1.00
19033;DHT22;9649;51.042;13.804;2023-04-06T07:56:15;5.90;1.00
19033;DHT22;9649;51.042;13.804;2023-04-06T08:01:19;6.70;99.90
19033;DHT22;9649;51.042;13.804;2023-04-06T08:06:22;10.60;1.00
19033;DHT22;9649;51.042;13.804;2023-04-06T08:11:25;14.40;1.00
19033;DHT22;9649;51.042;13.804;2023-04-06T08:16:30;16.70;1.00
19033;DHT22;9649;51.042;13.804;2023-04-06T08:21:33;17.90;1.00
19033;DHT22;9649;51.042;13.804;2023-04-06T08:26:35;18.90;99.90
19033;DHT22;9649;51.042;13.804;2023-04-06T08:31:39;19.90;99.90
19033;DHT22;9649;51.042;13.804;2023-04-06T08:36:43;21.30;99.90
19033;DHT22;9649;51.042;13.804;2023-04-06T08:41:48;21.90;99.90
19033;DHT22;9649;51.042;13.804;2023-04-06T08:46:55;23.50;99.90
19033;DHT22;9649;51.042;13.804;2023-04-06T08:51:59;25.00;99.90
19033;DHT22;9649;51.042;13.804;2023-04-06T08:57:04;24.40;99.90
19033;DHT22;9649;51.042;13.804;2023-04-06T09:02:15;25.60;99.90
19033;DHT22;9649;51.042;13.804;2023-04-06T09:07:20;28.30;99.90
19033;DHT22;9649;51.042;13.804;2023-04-06T09:12:24;28.30;99.90
19033;DHT22;9649;51.042;13.804;2023-04-06T09:17:30;26.50;99.90
19033;DHT22;9649;51.042;13.804;2023-04-06T09:22:36;27.80;99.90
19033;DHT22;9649;51.042;13.804;2023-04-06T09:27:39;30.80;99.90
19033;DHT22;9649;51.042;13.804;2023-04-06T10:14:10;38.60;99.90
19033;DHT22;9649;51.042;13.804;2023-04-06T10:19:16;37.70;99.90
19033;DHT22;9649;51.042;13.804;2023-04-06T10:24:21;37.60;99.90
19033;DHT22;9649;51.042;13.804;2023-04-06T10:29:25;37.50;99.90
19033;DHT22;9649;51.042;13.804;2023-04-06T10:34:34;36.10;99.90
19033;DHT22;9649;51.042;13.804;2023-04-06T10:39:45;38.10;99.90
19033;DHT22;9649;51.042;13.804;2023-04-06T10:44:50;31.90;99.90
19033;DHT22;9649;51.042;13.804;2023-04-06T10:49:52;27.90;99.90
19033;DHT22;9649;51.042;13.804;2023-04-06T10:54:56;23.20;99.90
19033;DHT22;9649;51.042;13.804;2023-04-06T11:00:00;19.70;99.90
19033;DHT22;9649;51.042;13.804;2023-04-06T11:05:03;18.50;99.90
19033;DHT22;9649;51.042;13.804;2023-04-06T11:10:07;19.00;99.90
19033;DHT22;9649;51.042;13.804;2023-04-06T11:15:20;19.00;99.90
19033;DHT22;9649;51.042;13.804;2023-04-06T11:20:22;24.50;99.90
19033;DHT22;9649;51.042;13.804;2023-04-06T11:25:25;30.90;99.90
19033;DHT22;9649;51.042;13.804;2023-04-06T11:30:30;31.90;99.90
19033;DHT22;9649;51.042;13.804;2023-04-06T11:35:33;27.70;99.90
19033;DHT22;9649;51.042;13.804;2023-04-06T11:40:37;26.10;99.90
19033;DHT22;9649;51.042;13.804;2023-04-06T11:45:41;28.10;99.90
19033;DHT22;9649;51.042;13.804;2023-04-06T11:50:46;27.50;99.90
19033;DHT22;9649;51.042;13.804;2023-04-06T11:55:49;28.30;99.90
19033;DHT22;9649;51.042;13.804;2023-04-06T12:00:53;29.50;99.90
19033;DHT22;9649;51.042;13.804;2023-04-06T12:05:56;31.80;99.90
19033;DHT22;9649;51.042;13.804;2023-04-06T12:11:00;33.50;99.90
19033;DHT22;9649;51.042;13.804;2023-04-06T12:16:05;34.90;99.90
19033;DHT22;9649;51.042;13.804;2023-04-06T12:21:08;32.50;99.90
19033;DHT22;9649;51.042;13.804;2023-04-06T12:26:11;33.10;99.90
19033;DHT22;9649;51.042;13.804;2023-04-06T12:31:19;33.60;99.90
19033;DHT22;9649;51.042;13.804;2023-04-06T12:36:23;35.60;99.90
19033;DHT22;9649;51.042;13.804;2023-04-06T12:41:27;38.20;99.90
19033;DHT22;9649;51.042;13.804;2023-04-06T12:46:31;39.40;99.90
19033;DHT22;9649;51.042;13.804;2023-04-06T12:51:34;38.70;99.90
19033;DHT22;9649;51.042;13.804;2023-04-06T12:56:37;38.40;99.90
19033;DHT22;9649;51.042;13.804;2023-04-06T13:01:41;38.30;99.90
19033;DHT22;9649;51.042;13.804;2023-04-06T13:06:43;35.60;99.90
19033;DHT22;9649;51.042;13.804;2023-04-06T13:11:46;30.40;99.90
19033;DHT22;9649;51.042;13.804;2023-04-06T13:16:50;27.00;99.90
19033;DHT22;9649;51.042;13.804;2023-04-06T13:21:53;22.10;99.90
19033;DHT22;9649;51.042;13.804;2023-04-06T13:26:56;19.40;99.90
19033;DHT22;9649;51.042;13.804;2023-04-06T13:32:00;18.20;99.90
19033;DHT22;9649;51.042;13.804;2023-04-06T13:37:03;18.30;99.90
19033;DHT22;9649;51.042;13.804;2023-04-06T13:42:06;18.60;99.90
19033;DHT22;9649;51.042;13.804;2023-04-06T13:47:10;22.40;99.90
19033;DHT22;9649;51.042;13.804;2023-04-06T13:52:13;28.80;99.90
19033;DHT22;9649;51.042;13.804;2023-04-06T13:57:16;32.30;99.90
19033;DHT22;9649;51.042;13.804;2023-04-06T14:02:20;34.60;99.90
19033;DHT22;9649;51.042;13.804;2023-04-06T14:07:29;35.20;99.90
19033;DHT22;9649;51.042;13.804;2023-04-06T14:12:31;30.90;99.90
19033;DHT22;9649;51.042;13.804;2023-04-06T14:17:36;25.10;99.90
19033;DHT22;9649;51.042;13.804;2023-04-06T14:22:39;23.30;99.90
19033;DHT22;9649;51.042;13.804;2023-04-06T14:27:42;24.60;99.90
19033;DHT22;9649;51.042;13.804;2023-04-06T14:32:47;22.00;99.90
19033;DHT22;9649;51.042;13.804;2023-04-06T14:37:49;20.20;99.90
19033;DHT22;9649;51.042;13.804;2023-04-06T14:42:53;23.30;99.90
19033;DHT22;9649;51.042;13.804;2023-04-06T14:47:58;24.70;99.90
19033;DHT22;9649;51.042;13.804;2023-04-06T14:53:01;25.60;99.90
19033;DHT22;9649;51.042;13.804;2023-04-06T14:58:04;28.60;99.90
19033;DHT22;9649;51.042;13.804;2023-04-06T15:03:08;29.50;99.90
19033;DHT22;9649;51.042;13.804;2023-04-06T15:08:11;28.60;99.90
19033;DHT22;9649;51.042;13.804;2023-04-06T15:13:16;27.80;99.90
19033;DHT22;9649;51.042;13.804;2023-04-06T15:18:20;27.60;99.90
19033;DHT22;9649;51.042;13.804;2023-04-06T15:23:23;28.60;99.90
19033;DHT22;9649;51.042;13.804;2023-04-06T15:28:26;28.90;99.90
19033;DHT22;9649;51.042;13.804;2023-04-06T15:33:31;27.80;99.90
19033;DHT22;9649;51.042;13.804;2023-04-06T15:38:35;28.20;99.90
19033;DHT22;9649;51.042;13.804;2023-04-06T15:43:38;27.90;99.90
19033;DHT22;9649;51.042;13.804;2023-04-06T15:48:42;26.50;99.90
19033;DHT22;9649;51.042;13.804;2023-04-06T15:53:45;24.40;99.90
19033;DHT22;9649;51.042;13.804;2023-04-06T15:58:48;22.00;99.90
19033;DHT22;9649;51.042;13.804;2023-04-06T16:03:52;19.40;99.90
19033;DHT22;9649;51.042;13.804;2023-04-06T16:08:55;17.80;99.90
19033;DHT22;9649;51.042;13.804;2023-04-06T16:13:58;16.90;99.90
19033;DHT22;9649;51.042;13.804;2023-04-06T16:19:03;16.50;99.90
19033;DHT22;9649;51.042;13.804;2023-04-06T16:24:05;15.80;99.90
19033;DHT22;9649;51.042;13.804;2023-04-06T16:29:09;15.30;99.90
19033;DHT22;9649;51.042;13.804;2023-04-06T16:34:13;14.70;99.90
19033;DHT22;9649;51.042;13.804;2023-04-06T16:39:16;14.20;99.90
19033;DHT22;9649;51.042;13.804;2023-04-06T16:44:18;14.00;99.90
19033;DHT22;9649;51.042;13.804;2023-04-06T16:49:23;13.60;99.90
19033;DHT22;9649;51.042;13.804;2023-04-06T16:54:26;13.20;99.90
19033;DHT22;9649;51.042;13.804;2023-04-06T16:59:29;12.90;99.90
19033;DHT22;9649;51.042;13.804;2023-04-06T17:04:33;12.80;99.90
19033;DHT22;9649;51.042;13.804;2023-04-06T17:09:38;13.10;99.90
19033;DHT22;9649;51.042;13.804;2023-04-06T17:14:43;13.10;99.90
19033;DHT22;9649;51.042;13.804;2023-04-06T17:19:47;12.60;99.90
19033;DHT22;9649;51.042;13.804;2023-04-06T17:24:50;11.90;99.90
19033;DHT22;9649;51.042;13.804;2023-04-06T17:29:55;11.40;99.90
19033;DHT22;9649;51.042;13.804;2023-04-06T17:35:02;11.10;99.90
19033;DHT22;9649;51.042;13.804;2023-04-06T17:40:06;10.60;99.90
19033;DHT22;9649;51.042;13.804;2023-04-06T17:45:11;10.20;99.90
19033;DHT22;9649;51.042;13.804;2023-04-06T17:50:15;10.10;99.90
19033;DHT22;9649;51.042;13.804;2023-04-06T17:55:18;9.90;99.90
19033;DHT22;9649;51.042;13.804;2023-04-06T18:00:23;9.60;99.90
19033;DHT22;9649;51.042;13.804;2023-04-06T18:05:27;9.20;99.90
19033;DHT22;9649;51.042;13.804;2023-04-06T18:10:36;9.10;99.90
19033;DHT22;9649;51.042;13.804;2023-04-06T18:15:38;8.90;99.90
19033;DHT22;9649;51.042;13.804;2023-04-06T18:20:43;8.70;99.90
19033;DHT22;9649;51.042;13.804;2023-04-06T18:25:45;8.50;99.90
19033;DHT22;9649;51.042;13.804;2023-04-06T18:30:48;8.20;99.90
19033;DHT22;9649;51.042;13.804;2023-04-06T18:35:52;8.20;99.90
19033;DHT22;9649;51.042;13.804;2023-04-06T18:40:57;7.90;99.90
19033;DHT22;9649;51.042;13.804;2023-04-06T18:46:00;7.70;99.90
19033;DHT22;9649;51.042;13.804;2023-04-06T18:51:04;7.60;99.90
19033;DHT22;9649;51.042;13.804;2023-04-06T18:56:13;7.40;99.90
19033;DHT22;9649;51.042;13.804;2023-04-06T19:01:21;7.20;99.90
19033;DHT22;9649;51.042;13.804;2023-04-06T19:06:25;7.20;99.90
19033;DHT22;9649;51.042;13.804;2023-04-06T19:11:28;7.20;99.90
19033;DHT22;9649;51.042;13.804;2023-04-06T19:16:32;7.50;99.90
19033;DHT22;9649;51.042;13.804;2023-04-06T19:21:42;7.60;99.90
19033;DHT22;9649;51.042;13.804;2023-04-06T19:26:45;7.30;99.90
19033;DHT22;9649;51.042;13.804;2023-04-06T19:31:48;6.80;99.90
19033;DHT22;9649;51.042;13.804;2023-04-06T19:36:55;6.50;99.90
19033;DHT22;9649;51.042;13.804;2023-04-06T19:41:57;6.30;99.90
19033;DHT22;9649;51.042;13.804;2023-04-06T19:47:00;6.20;99.90
19033;DHT22;9649;51.042;13.804;2023-04-06T19:52:06;6.00;99.90
19033;DHT22;9649;51.042;13.804;2023-04-06T19:57:10;6.00;99.90
19033;DHT22;9649;51.042;13.804;2023-04-06T20:02:13;6.70;99.90
19033;DHT22;9649;51.042;13.804;2023-04-06T20:07:17;6.70;99.90
19033;DHT22;9649;51.042;13.804;2023-04-06T20:12:20;6.30;99.90
19033;DHT22;9649;51.042;13.804;2023-04-06T20:17:23;6.20;1.00
19033;DHT22;9649;51.042;13.804;2023-04-06T20:22:27;6.10;1.00
19033;DHT22;9649;51.042;13.804;2023-04-06T20:27:30;5.90;1.00
19033;DHT22;9649;51.042;13.804;2023-04-06T20:32:33;5.90;1.00
19033;DHT22;9649;51.042;13.804;2023-04-06T20:37:37;5.70;1.00
19033;DHT22;9649;51.042;13.804;2023-04-06T20:42:39;5.20;1.00
19033;DHT22;9649;51.042;13.804;2023-04-06T20:47:43;4.70;1.00
19033;DHT22;9649;51.042;13.804;2023-04-06T20:52:48;4.50;54.00
19033;DHT22;9649;51.042;13.804;2023-04-06T20:57:50;4.70;1.00
19033;DHT22;9649;51.042;13.804;2023-04-06T21:02:53;4.90;1.00
19033;DHT22;9649;51.042;13.804;2023-04-06T21:07:58;4.80;1.00
19033;DHT22;9649;51.042;13.804;2023-04-06T21:13:00;4.90;1.00
19033;DHT22;9649;51.042;13.804;2023-04-06T21:18:03;4.80;1.00
19033;DHT22;9649;51.042;13.804;2023-04-06T21:23:08;4.90;1.00
19033;DHT22;9649;51.042;13.804;2023-04-06T21:28:10;4.90;1.00
19033;DHT22;9649;51.042;13.804;2023-04-06T21:33:13;4.80;29.60
19033;DHT22;9649;51.042;13.804;2023-04-06T21:38:17;4.70;99.90
19033;DHT22;9649;51.042;13.804;2023-04-06T21:43:20;4.60;99.90
19033;DHT22;9649;51.042;13.804;2023-04-06T21:48:23;4.40;99.90
19033;DHT22;9649;51.042;13.804;2023-04-06T21:53:27;4.40;99.90
19033;DHT22;9649;51.042;13.804;2023-04-06T21:58:29;4.40;99.90
19033;DHT22;9649;51.042;13.804;2023-04-06T22:03:32;4.20;99.90
19033;DHT22;9649;51.042;13.804;2023-04-06T22:08:36;4.10;1.00
19033;DHT22;9649;51.042;13.804;2023-04-06T22:13:39;4.20;1.00
19033;DHT22;9649;51.042;13.804;2023-04-06T22:18:42;4.10;1.00
19033;DHT22;9649;51.042;13.804;2023-04-06T22:23:46;3.90;1.00
19033;DHT22;9649;51.042;13.804;2023-04-06T22:29:24;3.90;1.00
19033;DHT22;9649;51.042;13.804;2023-04-06T22:35:18;3.80;1.00
19033;DHT22;9649;51.042;13.804;2023-04-06T22:41:24;3.70;1.00
19033;DHT22;9649;51.042;13.804;2023-04-06T22:53:37;3.50;1.00
19033;DHT22;9649;51.042;13.804;2023-04-06T22:59:07;3.50;1.00
19033;DHT22;9649;51.042;13.804;2023-04-06T23:11:37;3.20;99.90
19033;DHT22;9649;51.042;13.804;2023-04-06T23:23:16;3.40;99.90
19033;DHT22;9649;51.042;13.804;2023-04-06T23:35:12;3.20;99.90
19033;DHT22;9649;51.042;13.804;2023-04-06T23:40:52;3.10;1.00
19033;DHT22;9649;51.042;13.804;2023-04-06T23:46:53;2.80;1.00
